createdAt,value
2023-05-05T00:02:10.072Z,12.86
2023-05-05T00:05:13.153Z,12.79
2023-05-05T00:08:16.046Z,12.73
2023-05-05T00:11:18.778Z,12.72
2023-05-05T00:14:21.268Z,12.64
2023-05-05T00:17:24.011Z,12.58
2023-05-05T00:20:27.482Z,12.65
2023-05-05T00:23:30.381Z,12.50
2023-05-05T00:26:33.018Z,12.46
2023-05-05T00:29:36.345Z,12.58
2023-05-05T00:32:38.906Z,12.52
2023-05-05T00:35:42.199Z,12.40
2023-05-05T00:38:45.157Z,12.46
2023-05-05T00:41:49.514Z,12.36
2023-05-05T00:44:52.516Z,12.36
2023-05-05T00:47:58.937Z,12.36
2023-05-05T00:51:01.684Z,12.38
2023-05-05T00:54:05.940Z,12.35
2023-05-05T00:57:08.646Z,12.42
2023-05-05T01:00:12.677Z,12.40
2023-05-05T01:03:15.524Z,12.29
2023-05-05T01:06:56.193Z,12.35
2023-05-05T01:10:51.129Z,12.40
2023-05-05T01:14:16.336Z,12.40
2023-05-05T01:17:24.672Z,12.22
2023-05-05T01:20:36.815Z,12.32
2023-05-05T01:24:05.200Z,12.41
2023-05-05T01:27:30.398Z,12.39
2023-05-05T01:30:46.482Z,12.19
2023-05-05T01:34:01.984Z,12.16
2023-05-05T01:37:12.107Z,12.10
2023-05-05T01:40:20.087Z,12.07
2023-05-05T01:43:26.246Z,12.20
2023-05-05T01:46:30.314Z,11.88
2023-05-05T01:49:36.122Z,12.05
2023-05-05T01:52:42.182Z,12.01
2023-05-05T01:55:47.409Z,11.96
2023-05-05T01:58:51.780Z,11.88
2023-05-05T02:01:56.858Z,11.77
2023-05-05T02:05:02.654Z,11.89
2023-05-05T02:08:06.642Z,12.01
2023-05-05T02:11:11.223Z,11.98
2023-05-05T02:14:16.794Z,11.92
2023-05-05T02:17:21.781Z,11.67
2023-05-05T02:20:25.270Z,11.56
2023-05-05T02:23:28.704Z,11.74
2023-05-05T02:26:35.276Z,11.59
2023-05-05T02:29:48.881Z,11.70
2023-05-05T02:33:00.156Z,11.57
2023-05-05T02:36:21.362Z,11.59
2023-05-05T02:39:47.422Z,11.61
2023-05-05T02:42:54.430Z,11.67
2023-05-05T02:45:58.240Z,11.62
2023-05-05T02:49:01.949Z,11.54
2023-05-05T02:52:04.899Z,11.46
2023-05-05T02:55:08.702Z,11.36
2023-05-05T02:58:22.253Z,11.28
2023-05-05T03:01:39.098Z,11.34
2023-05-05T03:04:48.723Z,11.36
2023-05-05T03:08:05.402Z,11.32
2023-05-05T03:11:40.059Z,11.38
2023-05-05T03:14:46.246Z,11.42
2023-05-05T03:17:50.519Z,11.37
2023-05-05T03:20:55.286Z,11.49
2023-05-05T03:23:58.736Z,11.33
2023-05-05T03:27:01.577Z,11.38
2023-05-05T03:30:05.245Z,11.38
2023-05-05T03:33:11.342Z,11.23
2023-05-05T03:36:14.758Z,11.33
2023-05-05T03:39:18.842Z,11.37
2023-05-05T03:42:22.112Z,11.37
2023-05-05T03:45:25.467Z,11.06
2023-05-05T03:48:28.636Z,11.27
2023-05-05T03:51:31.630Z,11.38
2023-05-05T03:54:34.604Z,11.30
2023-05-05T03:57:37.696Z,11.08
2023-05-05T04:00:40.584Z,11.24
2023-05-05T04:03:43.910Z,11.56
2023-05-05T04:06:46.589Z,11.63
2023-05-05T04:09:49.998Z,11.73
2023-05-05T04:12:52.701Z,12.11
2023-05-05T04:16:00.657Z,12.20
2023-05-05T04:19:03.982Z,12.23
2023-05-05T04:22:07.936Z,12.35
2023-05-05T04:25:11.356Z,12.53
2023-05-05T04:28:14.359Z,12.76
2023-05-05T04:31:17.286Z,13.06
2023-05-05T04:34:20.682Z,12.87
2023-05-05T04:37:25.237Z,13.06
2023-05-05T04:40:28.790Z,12.73
2023-05-05T04:43:32.015Z,12.98
2023-05-05T04:46:36.023Z,13.00
2023-05-05T04:49:38.988Z,13.22
2023-05-05T04:52:42.718Z,13.49
2023-05-05T04:55:45.533Z,13.30
2023-05-05T04:58:50.508Z,13.18
2023-05-05T05:01:53.106Z,13.21
2023-05-05T05:04:56.101Z,13.69
2023-05-05T05:07:59.690Z,13.78
2023-05-05T05:11:02.492Z,14.04
2023-05-05T05:14:05.299Z,14.13
2023-05-05T05:17:08.312Z,13.94
2023-05-05T05:20:11.592Z,14.33
2023-05-05T05:23:14.592Z,14.78
2023-05-05T05:26:17.556Z,15.45
2023-05-05T05:29:20.732Z,15.74
2023-05-05T05:32:23.490Z,16.05
2023-05-05T05:35:26.500Z,16.09
2023-05-05T05:38:29.444Z,16.60
2023-05-05T05:41:33.186Z,16.69
2023-05-05T05:44:36.329Z,17.24
2023-05-05T05:47:39.579Z,17.68
2023-05-05T05:50:42.505Z,17.62
2023-05-05T05:53:45.676Z,18.52
2023-05-05T05:56:49.628Z,18.65
2023-05-05T05:59:53.896Z,18.90
2023-05-05T06:02:57.006Z,18.95
2023-05-05T06:06:00.490Z,18.77
2023-05-05T06:09:03.124Z,19.26
2023-05-05T06:12:07.217Z,19.37
2023-05-05T06:15:10.084Z,20.55
2023-05-05T06:18:13.027Z,19.93
2023-05-05T06:21:15.634Z,20.58
2023-05-05T06:24:19.129Z,20.19
2023-05-05T06:27:21.699Z,20.40
2023-05-05T06:30:26.117Z,18.61
2023-05-05T06:33:28.744Z,19.77
2023-05-05T06:36:32.356Z,20.18
2023-05-05T06:39:34.907Z,19.37
2023-05-05T06:42:37.982Z,20.33
2023-05-05T06:45:43.797Z,20.21
2023-05-05T06:48:49.054Z,18.83
2023-05-05T06:51:51.543Z,20.74
2023-05-05T06:54:54.426Z,20.16
2023-05-05T06:57:57.020Z,20.54
2023-05-05T07:01:01.302Z,20.92
2023-05-05T07:04:04.121Z,21.05
2023-05-05T07:07:07.026Z,22.15
2023-05-05T07:10:10.115Z,20.95
2023-05-05T07:13:15.168Z,21.70
2023-05-05T07:16:17.898Z,22.29
2023-05-05T07:19:21.430Z,21.77
2023-05-05T07:22:24.096Z,21.12
2023-05-05T07:25:26.896Z,22.30
2023-05-05T07:28:29.447Z,21.49
2023-05-05T07:31:32.328Z,22.48
2023-05-05T07:34:37.000Z,22.81
2023-05-05T07:37:39.877Z,22.59
2023-05-05T07:40:42.692Z,23.33
2023-05-05T07:43:46.050Z,23.06
2023-05-05T07:46:48.578Z,22.78
2023-05-05T07:49:51.462Z,22.50
2023-05-05T07:53:02.493Z,22.27
2023-05-05T07:56:13.356Z,22.50
2023-05-05T07:59:15.988Z,23.30
2023-05-05T08:02:19.090Z,23.47
2023-05-05T08:05:21.901Z,24.29
2023-05-05T08:08:25.101Z,22.67
2023-05-05T08:11:29.742Z,23.28
2023-05-05T08:14:33.087Z,22.49
2023-05-05T08:17:46.982Z,21.99
2023-05-05T08:20:50.426Z,23.70
2023-05-05T08:23:53.884Z,23.69
2023-05-05T08:26:56.734Z,23.84
2023-05-05T08:29:59.838Z,24.30
2023-05-05T08:33:02.573Z,24.16
2023-05-05T08:36:06.444Z,23.36
2023-05-05T08:39:08.962Z,23.89
2023-05-05T08:42:15.709Z,25.17
2023-05-05T08:45:22.343Z,24.49
2023-05-05T08:48:28.414Z,26.56
2023-05-05T08:51:38.254Z,23.91
2023-05-05T08:54:48.569Z,24.75
2023-05-05T08:57:54.541Z,25.14
2023-05-05T09:00:57.967Z,25.48
2023-05-05T09:04:01.105Z,25.37
2023-05-05T09:07:04.620Z,26.33
2023-05-05T09:10:11.841Z,24.07
2023-05-05T09:13:15.005Z,24.90
2023-05-05T09:16:17.699Z,24.95
2023-05-05T09:19:21.550Z,25.15
2023-05-05T09:22:36.739Z,24.60
2023-05-05T09:25:41.253Z,25.08
2023-05-05T09:28:52.598Z,24.51
2023-05-05T09:32:08.322Z,24.39
2023-05-05T09:35:11.291Z,25.93
2023-05-05T09:38:14.290Z,24.36
2023-05-05T09:41:36.902Z,26.99
2023-05-05T09:44:40.823Z,26.77
2023-05-05T09:47:45.671Z,25.80
2023-05-05T09:50:48.596Z,24.33
2023-05-05T09:53:51.121Z,24.86
2023-05-05T09:56:59.120Z,23.50
2023-05-05T10:00:04.400Z,23.66
2023-05-05T10:03:08.233Z,23.79
2023-05-05T10:06:11.342Z,25.22
2023-05-05T10:09:15.051Z,24.35
2023-05-05T10:12:18.291Z,24.99
2023-05-05T10:15:22.261Z,24.84
2023-05-05T10:18:27.340Z,25.23
2023-05-05T10:21:34.862Z,25.89
2023-05-05T10:24:50.863Z,25.12
2023-05-05T10:27:55.949Z,25.67
2023-05-05T10:31:04.252Z,25.13
2023-05-05T10:34:30.179Z,25.91
2023-05-05T10:37:33.692Z,26.28
2023-05-05T10:40:36.397Z,23.93
2023-05-05T10:43:40.333Z,25.89
2023-05-05T10:46:44.288Z,24.62
2023-05-05T10:49:50.307Z,25.23
2023-05-05T10:53:08.238Z,25.34
2023-05-05T10:56:25.329Z,25.44
2023-05-05T10:59:37.159Z,25.19
2023-05-05T11:02:40.330Z,25.15
2023-05-05T11:06:05.136Z,26.26
2023-05-05T11:09:56.930Z,25.45
2023-05-05T11:13:00.114Z,25.90
2023-05-05T11:16:03.116Z,26.26
2023-05-05T11:19:43.674Z,26.14
2023-05-05T11:23:05.454Z,24.80
2023-05-05T11:26:11.441Z,24.55
2023-05-05T11:29:14.642Z,25.90
2023-05-05T11:32:17.269Z,25.92
2023-05-05T11:35:20.150Z,25.98
2023-05-05T11:38:29.820Z,27.63
2023-05-05T11:41:32.875Z,26.01
2023-05-05T11:44:36.022Z,24.27
2023-05-05T11:47:39.050Z,25.12
2023-05-05T11:50:42.752Z,26.03
2023-05-05T11:53:49.304Z,26.02
2023-05-05T11:56:56.684Z,26.77
2023-05-05T12:00:05.245Z,25.35
2023-05-05T12:03:08.813Z,27.10
2023-05-05T12:06:11.461Z,26.18
2023-05-05T12:09:16.298Z,25.87
2023-05-05T12:12:19.302Z,24.77
2023-05-05T12:15:33.120Z,23.89
2023-05-05T12:18:36.031Z,23.51
2023-05-05T12:21:40.171Z,23.21
2023-05-05T12:24:43.174Z,23.74
2023-05-05T12:27:53.253Z,23.81
2023-05-05T12:30:57.731Z,24.55
2023-05-05T12:34:01.899Z,24.15
2023-05-05T12:37:04.932Z,23.75
2023-05-05T12:40:29.046Z,23.93
2023-05-05T12:43:35.301Z,24.09
2023-05-05T12:46:48.986Z,24.94
2023-05-05T12:49:52.526Z,25.13
2023-05-05T12:52:55.382Z,24.08
2023-05-05T12:55:58.340Z,24.69
2023-05-05T12:59:04.451Z,24.53
2023-05-05T13:02:08.338Z,23.99
2023-05-05T13:05:12.611Z,24.74
2023-05-05T13:08:15.287Z,23.84
2023-05-05T13:11:18.546Z,23.40
2023-05-05T13:14:21.589Z,22.66
2023-05-05T13:17:24.477Z,22.94
2023-05-05T13:20:27.324Z,23.23
2023-05-05T13:23:30.720Z,24.01
2023-05-05T13:26:33.865Z,24.23
2023-05-05T13:29:36.775Z,23.97
2023-05-05T13:32:39.395Z,23.48
2023-05-05T13:35:42.606Z,23.23
2023-05-05T13:38:45.546Z,22.87
2023-05-05T13:41:48.662Z,22.89
2023-05-05T13:44:51.365Z,22.77
2023-05-05T13:47:54.226Z,22.86
2023-05-05T13:50:57.186Z,22.81
2023-05-05T13:54:00.309Z,22.97
2023-05-05T13:57:05.221Z,23.08
2023-05-05T14:00:09.238Z,23.41
2023-05-05T14:03:12.198Z,23.11
2023-05-05T14:06:14.815Z,23.26
2023-05-05T14:09:17.718Z,23.44
2023-05-05T14:12:20.610Z,23.20
2023-05-05T14:15:23.449Z,22.99
2023-05-05T14:18:26.288Z,22.77
2023-05-05T14:21:29.267Z,22.55
2023-05-05T14:24:31.749Z,22.58
2023-05-05T14:27:34.549Z,22.29
2023-05-05T14:30:37.227Z,22.55
2023-05-05T14:33:40.106Z,22.59
2023-05-05T14:36:42.960Z,23.03
2023-05-05T14:39:46.748Z,22.92
2023-05-05T14:42:51.100Z,22.81
2023-05-05T14:45:55.490Z,22.52
2023-05-05T14:48:59.271Z,22.72
2023-05-05T14:52:02.128Z,22.35
2023-05-05T14:55:07.016Z,22.52
2023-05-05T14:58:10.121Z,22.71
2023-05-05T15:01:12.750Z,22.26
2023-05-05T15:04:16.471Z,22.36
2023-05-05T15:07:20.437Z,22.19
2023-05-05T15:10:24.670Z,22.34
2023-05-05T15:13:27.360Z,22.44
2023-05-05T15:16:30.362Z,22.32
2023-05-05T15:19:33.888Z,22.33
2023-05-05T15:22:36.867Z,22.34
2023-05-05T15:25:39.468Z,22.38
2023-05-05T15:28:42.421Z,22.63
2023-05-05T15:31:45.028Z,22.90
2023-05-05T15:34:51.668Z,22.66
2023-05-05T15:37:55.368Z,22.26
2023-05-05T15:40:58.523Z,22.62
2023-05-05T15:44:03.135Z,22.42
2023-05-05T15:47:06.853Z,22.22
2023-05-05T15:50:09.904Z,21.92
2023-05-05T15:53:12.908Z,22.05
2023-05-05T15:56:15.849Z,21.96
2023-05-05T15:59:19.315Z,22.05
2023-05-05T16:02:23.621Z,21.89
2023-05-05T16:05:26.434Z,21.88
2023-05-05T16:08:29.254Z,22.13
2023-05-05T16:11:32.332Z,22.01
2023-05-05T16:14:35.037Z,21.93
2023-05-05T16:17:37.890Z,21.82
2023-05-05T16:20:40.937Z,21.91
2023-05-05T16:23:43.851Z,21.99
2023-05-05T16:26:46.387Z,21.83
2023-05-05T16:29:49.250Z,21.89
2023-05-05T16:32:54.973Z,21.83
2023-05-05T16:36:00.102Z,21.90
2023-05-05T16:39:02.753Z,21.88
2023-05-05T16:42:06.388Z,21.82
2023-05-05T16:45:09.814Z,21.69
2023-05-05T16:48:13.875Z,21.74
2023-05-05T16:51:16.654Z,21.74
2023-05-05T16:54:21.016Z,21.67
2023-05-05T16:57:23.770Z,21.56
2023-05-05T17:00:26.724Z,21.50
2023-05-05T17:03:31.312Z,21.40
2023-05-05T17:06:34.177Z,21.30
2023-05-05T17:09:36.673Z,21.33
2023-05-05T17:12:39.769Z,21.18
2023-05-05T17:15:44.319Z,21.20
2023-05-05T17:18:47.294Z,21.10
2023-05-05T17:21:49.846Z,21.01
2023-05-05T17:24:52.717Z,21.01
2023-05-05T17:27:55.521Z,21.07
2023-05-05T17:30:59.997Z,21.02
2023-05-05T17:34:02.549Z,20.97
2023-05-05T17:37:05.462Z,20.88
2023-05-05T17:40:08.621Z,20.87
2023-05-05T17:43:11.563Z,20.84
2023-05-05T17:46:14.066Z,20.74
2023-05-05T17:49:17.235Z,20.60
2023-05-05T17:52:23.258Z,20.48
2023-05-05T17:55:26.462Z,20.40
2023-05-05T17:58:29.188Z,20.31
2023-05-05T18:01:32.233Z,20.24
2023-05-05T18:04:37.850Z,20.19
2023-05-05T18:07:40.325Z,20.15
2023-05-05T18:10:43.292Z,20.05
2023-05-05T18:13:45.998Z,19.94
2023-05-05T18:16:50.797Z,19.84
2023-05-05T18:19:53.261Z,19.78
2023-05-05T18:22:56.250Z,19.67
2023-05-05T18:25:58.822Z,19.57
2023-05-05T18:29:01.930Z,19.55
2023-05-05T18:32:06.079Z,19.44
2023-05-05T18:35:09.678Z,19.39
2023-05-05T18:38:12.492Z,19.29
2023-05-05T18:41:15.656Z,19.27
2023-05-05T18:44:20.000Z,19.16
2023-05-05T18:47:23.599Z,19.08
2023-05-05T18:50:26.864Z,19.08
2023-05-05T18:53:32.281Z,19.04
2023-05-05T18:56:34.873Z,19.06
2023-05-05T18:59:37.707Z,18.94
2023-05-05T19:02:43.288Z,18.91
2023-05-05T19:05:46.344Z,18.91
2023-05-05T19:08:50.046Z,18.77
2023-05-05T19:11:52.945Z,18.67
2023-05-05T19:14:55.539Z,18.53
2023-05-05T19:17:59.245Z,18.55
2023-05-05T19:21:02.110Z,18.52
2023-05-05T19:24:08.726Z,18.44
2023-05-05T19:27:16.557Z,18.49
2023-05-05T19:30:19.893Z,18.27
2023-05-05T19:33:22.621Z,18.33
2023-05-05T19:36:25.953Z,18.25
2023-05-05T19:39:31.037Z,18.22
2023-05-05T19:42:34.459Z,18.16
2023-05-05T19:45:37.292Z,18.22
2023-05-05T19:48:40.224Z,18.18
2023-05-05T19:51:42.755Z,18.15
2023-05-05T19:54:45.735Z,18.03
2023-05-05T19:57:50.487Z,17.80
2023-05-05T20:00:53.380Z,17.84
2023-05-05T20:03:57.258Z,17.92
2023-05-05T20:06:59.880Z,17.71
2023-05-05T20:10:02.900Z,17.61
2023-05-05T20:13:05.605Z,17.54
2023-05-05T20:16:08.928Z,17.51
2023-05-05T20:19:11.533Z,17.45
2023-05-05T20:22:14.603Z,17.45
2023-05-05T20:25:17.331Z,17.46
2023-05-05T20:28:20.720Z,17.45
2023-05-05T20:31:23.337Z,17.26
2023-05-05T20:34:27.594Z,17.26
2023-05-05T20:37:30.084Z,17.25
2023-05-05T20:40:33.672Z,17.15
2023-05-05T20:43:39.268Z,16.99
2023-05-05T20:46:42.254Z,17.00
2023-05-05T20:49:44.840Z,17.11
2023-05-05T20:52:47.689Z,16.98
2023-05-05T20:55:50.387Z,17.02
2023-05-05T20:58:55.407Z,16.93
2023-05-05T21:01:58.601Z,16.98
2023-05-05T21:05:05.218Z,17.09
2023-05-05T21:08:08.173Z,17.01
2023-05-05T21:11:11.145Z,16.93
2023-05-05T21:14:13.997Z,16.81
2023-05-05T21:17:16.893Z,16.44
2023-05-05T21:20:19.643Z,16.22
2023-05-05T21:23:22.541Z,16.26
2023-05-05T21:26:25.216Z,16.57
2023-05-05T21:29:28.334Z,16.46
2023-05-05T21:32:31.296Z,16.43
2023-05-05T21:35:34.309Z,16.38
2023-05-05T21:38:37.155Z,16.55
2023-05-05T21:41:39.878Z,16.48
2023-05-05T21:44:42.387Z,16.37
2023-05-05T21:47:45.299Z,16.19
2023-05-05T21:50:47.798Z,16.14
2023-05-05T21:53:50.800Z,15.93
2023-05-05T21:56:53.365Z,15.91
2023-05-05T21:59:56.174Z,15.84
2023-05-05T22:07:06.267Z,15.76
2023-05-05T22:10:09.866Z,15.55
2023-05-05T22:13:13.947Z,15.49
2023-05-05T22:16:19.804Z,15.43
2023-05-05T22:19:23.787Z,15.50
2023-05-05T22:22:26.537Z,15.43
2023-05-05T22:25:29.120Z,15.46
2023-05-05T22:28:31.853Z,15.30
2023-05-05T22:31:35.186Z,15.08
2023-05-05T22:34:38.170Z,15.08
2023-05-05T22:37:41.097Z,15.03
2023-05-05T22:40:43.897Z,15.05
2023-05-05T22:43:47.532Z,15.23
2023-05-05T22:46:51.456Z,15.46
2023-05-05T22:49:53.964Z,15.80
2023-05-05T22:52:57.093Z,15.81
2023-05-05T22:55:59.711Z,15.64
2023-05-05T22:59:03.761Z,15.67
2023-05-05T23:02:06.318Z,15.55
2023-05-05T23:05:10.998Z,15.53
2023-05-05T23:08:13.750Z,15.53
2023-05-05T23:11:16.712Z,15.39
2023-05-05T23:14:19.547Z,15.05
2023-05-05T23:17:23.571Z,15.14
2023-05-05T23:20:26.205Z,15.04
2023-05-05T23:23:29.557Z,15.03
2023-05-05T23:26:32.524Z,15.05
2023-05-05T23:29:35.477Z,15.04
2023-05-05T23:32:38.160Z,14.94
2023-05-05T23:35:43.363Z,14.73
2023-05-05T23:38:46.132Z,14.76
2023-05-05T23:41:49.021Z,14.56
2023-05-05T23:44:52.201Z,14.57
2023-05-05T23:47:55.269Z,14.54
2023-05-05T23:50:57.972Z,14.33
2023-05-05T23:54:01.233Z,14.04
2023-05-05T23:57:03.852Z,13.68
